»·PEaware :: DAL5882 KSBA-KSFO

DAL5882 :: KSBA-KSFO

FLIGHT INFORMATION

Flight Status: Arrived
Operator:
Delta Air Lines
More flights by this operator :: More flights under this callsign
Pilot: Jamie M. (16133)
Aircraft: DEHAVILLAND DASH 8 400
(DH8D)
More flights by this aircraft type
Origin: KSBA Santa Barbara Mun
United States
Destination: KSFO San Francisco Intl
United States
More flights between these airports :: More routes between these airports
Route: +GAUCH1 MQO BSR V111 SNS V87 OSI
File this flight plan on PilotEdge
Remarks:
Altitude:
(Current/Filed)
20,000ft
Speed:
(Current/Filed)
322kts
Departed: 26-Apr-18 01:03 PM
Arrived: 26-Apr-18 01:58 PM
Distance/Time
Traveled:
228nm/0:55
Distance/Time
To Go:
Arrived

Flight Plot

Page will automatically refresh every two minutes.

Flight plan parsing failed; only flown route is shown


Map Options




Map Legend


Flown Route
Filed Route
Departure Airport
Arrival Airport
Navaid (VOR, NDB)
Fix

Horizontal Profiles

Position Reports

Time Latitude Longitude Heading Altitude Ground
Speed
26-Apr-18 12:29 34.426027 -119.836647 189 17ft 0kts
26-Apr-18 12:30 34.426027 -119.836647 189 17ft 0kts
26-Apr-18 12:31 34.426027 -119.836647 189 17ft 0kts
26-Apr-18 12:32 34.426027 -119.836647 189 17ft 0kts
26-Apr-18 12:33 34.426027 -119.836647 189 17ft 0kts
26-Apr-18 12:34 34.426027 -119.836647 189 17ft 0kts
26-Apr-18 12:35 34.426027 -119.836647 189 17ft 0kts
26-Apr-18 12:36 34.426027 -119.836647 189 17ft 0kts
26-Apr-18 12:37 34.426027 -119.836647 189 17ft 0kts
26-Apr-18 12:38 34.426027 -119.836647 189 17ft 0kts
26-Apr-18 12:39 34.426027 -119.836647 189 17ft 0kts
26-Apr-18 12:40 34.426027 -119.836647 189 17ft 0kts
26-Apr-18 12:41 34.426027 -119.836647 189 17ft 0kts
26-Apr-18 12:42 34.426027 -119.836647 189 17ft 0kts
26-Apr-18 12:43 34.426027 -119.836647 189 17ft 0kts
26-Apr-18 12:44 34.426027 -119.836647 189 17ft 0kts
26-Apr-18 12:45 34.426027 -119.836647 189 17ft 0kts
26-Apr-18 12:46 34.426027 -119.836647 189 17ft 0kts
26-Apr-18 12:47 34.426027 -119.836647 189 17ft 0kts
26-Apr-18 12:48 34.426027 -119.836647 189 17ft 0kts
26-Apr-18 12:49 34.426027 -119.836647 189 17ft 0kts
26-Apr-18 12:50 34.426027 -119.836647 189 17ft 0kts
26-Apr-18 12:51 34.426629 -119.836757 84 17ft 1kts
26-Apr-18 12:52 34.426628 -119.836763 84 17ft 0kts
26-Apr-18 12:53 34.426628 -119.836763 84 17ft 0kts
26-Apr-18 12:54 34.426628 -119.836763 84 17ft 0kts
26-Apr-18 12:55 34.426814 -119.835512 75 17ft 6kts
26-Apr-18 12:56 34.427036 -119.835255 9 17ft 0kts
26-Apr-18 12:57 34.427036 -119.835255 9 17ft 0kts
26-Apr-18 12:58 34.427036 -119.835255 9 17ft 0kts
26-Apr-18 12:59 34.427036 -119.835255 9 17ft 0kts
26-Apr-18 13:00 34.427036 -119.835255 9 17ft 0kts
26-Apr-18 13:01 34.427694 -119.835132 357 17ft 7kts
26-Apr-18 13:02 34.427857 -119.860914 268 690ft 127kts
26-Apr-18 13:03 34.426753 -119.910753 262 2848ft 167kts
26-Apr-18 13:04 34.424367 -119.972059 268 2997ft 188kts
26-Apr-18 13:05 34.423767 -120.038152 268 2992ft 202kts
26-Apr-18 13:06 34.422619 -120.107608 268 2980ft 208kts
26-Apr-18 13:07 34.423845 -120.173054 263 4024ft 161kts
26-Apr-18 13:08 34.423025 -120.232924 268 6281ft 189kts
26-Apr-18 13:09 34.433215 -120.290692 315 8255ft 202kts
26-Apr-18 13:10 34.483362 -120.322073 332 10149ft 216kts
26-Apr-18 13:11 34.531929 -120.349077 331 11778ft 227kts
26-Apr-18 13:12 34.590772 -120.381985 330 13711ft 235kts
26-Apr-18 13:13 34.637196 -120.409110 330 15014ft 239kts
26-Apr-18 13:14 34.691168 -120.439975 331 16430ft 246kts
26-Apr-18 13:15 34.754377 -120.475652 331 17912ft 253kts
26-Apr-18 13:16 34.818234 -120.511720 331 19211ft 259kts
26-Apr-18 13:17 34.885111 -120.549563 331 20066ft 279kts
26-Apr-18 13:18 34.957426 -120.591001 331 20113ft 312kts
26-Apr-18 13:19 35.037121 -120.636575 331 20104ft 333kts
26-Apr-18 13:20 35.122008 -120.685118 332 20097ft 345kts
26-Apr-18 13:21 35.208509 -120.734590 332 20093ft 352kts
26-Apr-18 13:22 35.291842 -120.794747 318 20089ft 351kts
26-Apr-18 13:23 35.367669 -120.867800 319 20081ft 354kts
26-Apr-18 13:24 35.445566 -120.940940 319 20071ft 356kts
26-Apr-18 13:25 35.523165 -121.013909 319 20066ft 356kts
26-Apr-18 13:26 35.593294 -121.077138 322 20063ft 358kts
26-Apr-18 13:27 35.673897 -121.145223 322 20063ft 358kts
26-Apr-18 13:28 35.755362 -121.213873 322 20047ft 359kts
26-Apr-18 13:29 35.836236 -121.282088 322 20048ft 349kts
26-Apr-18 13:30 35.914923 -121.348084 322 20052ft 341kts
26-Apr-18 13:31 35.991130 -121.411770 322 20056ft 336kts
26-Apr-18 13:32 36.067265 -121.475517 322 20069ft 334kts
26-Apr-18 13:33 36.143779 -121.539383 322 20073ft 334kts
26-Apr-18 13:34 36.207230 -121.617706 312 20080ft 330kts
26-Apr-18 13:35 36.296478 -121.634044 6 19887ft 348kts
26-Apr-18 13:36 36.393554 -121.624331 2 19299ft 361kts
26-Apr-18 13:37 36.450455 -121.620574 3 18964ft 366kts
26-Apr-18 13:38 36.550041 -121.612578 4 17916ft 363kts
26-Apr-18 13:39 36.645470 -121.607733 350 16759ft 357kts
26-Apr-18 13:40 36.717236 -121.679845 304 15593ft 343kts
26-Apr-18 13:41 36.776010 -121.770371 307 14578ft 334kts
26-Apr-18 13:42 36.833829 -121.855560 307 14067ft 325kts
26-Apr-18 13:43 36.891114 -121.941071 306 14019ft 321kts
26-Apr-18 13:44 36.948146 -122.026286 306 14014ft 320kts
26-Apr-18 13:45 37.018556 -122.094620 337 12890ft 339kts
26-Apr-18 13:46 37.098968 -122.133185 337 11682ft 328kts
26-Apr-18 13:47 37.178384 -122.173205 337 10402ft 299kts
26-Apr-18 13:48 37.241835 -122.205373 338 9301ft 284kts
26-Apr-18 13:49 37.313787 -122.221747 354 7927ft 273kts
26-Apr-18 13:50 37.384494 -122.232178 354 6641ft 258kts
26-Apr-18 13:51 37.446769 -122.240763 354 5639ft 240kts
26-Apr-18 13:52 37.501099 -122.247822 354 4710ft 227kts
26-Apr-18 13:53 37.560154 -122.254571 351 3476ft 201kts
26-Apr-18 13:54 37.586971 -122.292895 282 2143ft 136kts
26-Apr-18 13:55 37.600242 -122.331025 295 488ft 114kts
26-Apr-18 13:56 37.614346 -122.364565 295 32ft 99kts
26-Apr-18 13:57 37.618818 -122.378684 249 20ft 14kts
26-Apr-18 13:58 37.617412 -122.379459 176 20ft 11kts
26-Apr-18 13:59 37.614189 -122.381263 209 20ft 17kts
26-Apr-18 14:00 37.614402 -122.382719 24 20ft 1kts
26-Apr-18 14:01 37.614405 -122.382718 24 19ft 0kts

Navigation Log

Ident Type
Flight plan parsing failed, navigation log unavailable